الصفحة الرئيسية
METAR-TAF:

METAR-TAF

مطار :

مطار بشار - بودغن بن علي لطفي

بشار, الجزائر

دائرة عرض: 31-37N, خط طول: 002-14W, ارتفاع: 773 متر

مراقبة الطقس الحالي

تاريخ ووقت الإصدار 24 دقيقة قبل الساعة 13:00UTC
ريح 13 عقدة من الشرق/الشمال الشرقي
درجة الحرارة 20°درجة مئوية
الرطوبة 37%
ضغط 1025 hPa
الرؤية 10 كم أو أكثر
غيوم قليلة على ارتفاع 3300 قدم
غيوم متفرقة على ارتفاع 23300 قدم

METAR: DAOR 261300Z 07013KT 9999 FEW033 SCT233 20/05 Q1025

زمن: 14:24 (13:24 UTC)

توقعات

تاريخ ووقت الإصدار 2ساعات و 24 دقيقة قبل الساعة 11:00UTC
التوقعات صالحة من26 الساعة 12 UTC إلى 26 الساعة 21 UTC
ريح 12 عقدة من الشمال/الشمال الشرقي
الرؤية 10 كم أو أكثر
الغيوم لا تقل 1500 م ولا وجود لمزنة ركامية السحاب الأسود
نظرية الاحتمالات 30% :
مؤقت
من 26 الساعة 12 UTC إلى 26 الساعة 15 UTC
ريح 15 عقدة من الشمال/الشمال الشرقي تتزايد حتى 25 عقدة

TAF: DAOR 261100Z 2612/2621 02012KT CAVOK PROB30 TEMPO 2612/2615 02015G25KT

أرصاد الطقس والتوقعات من أكثر من 4000 مطار (تقارير الطقس للمطار METAR والتنبؤ بالطقس بالمطارTAF).

المحطات المتاحة هي النقط الصفراء والحمراء على الخريطة.

حرك المؤشر فوق النقطة لمعرفة اسم المحطة.

ثم انقر لمعرفة أرصاد وتوقعات الطقس.

لتغيير الخارطة: اضغط على الأزرار الخضراء مع رمز الصليب الأسود للتكبير. على الزر الأخضر مع شرطة للتصغير، أو على الأسهم الخضراء للخرائط المجاورة.


METAR-TAF: